createdAt,value
2022-07-26T00:29:44.602Z,79
2022-07-26T01:59:50.884Z,84
2022-07-26T02:29:51.904Z,83
2022-07-26T02:39:52.355Z,83
2022-07-26T02:59:53.419Z,84
2022-07-26T03:09:54.197Z,84
2022-07-26T03:19:54.445Z,84
2022-07-26T03:29:54.951Z,84
2022-07-26T03:39:55.551Z,85
2022-07-26T03:49:56.118Z,86
2022-07-26T03:59:56.300Z,87
2022-07-26T04:09:56.911Z,90
2022-07-26T04:19:57.395Z,92
2022-07-26T04:29:58.344Z,93
2022-07-26T04:39:58.473Z,95
2022-07-26T04:49:58.943Z,96
2022-07-26T05:00:20.195Z,96
2022-07-26T05:10:00.292Z,97
2022-07-26T05:20:03.122Z,97
2022-07-26T05:40:01.426Z,96
2022-07-26T05:50:01.658Z,96
2022-07-26T06:00:02.407Z,95
2022-07-26T12:33:08.876Z,91
2022-07-26T12:40:24.736Z,91
2022-07-26T13:00:25.772Z,89
2022-07-26T13:20:27.780Z,87
2022-07-26T13:30:28.031Z,87
2022-07-26T13:40:31.194Z,86
2022-07-26T14:00:29.578Z,84
2022-07-26T14:20:31.542Z,82
2022-07-26T14:50:47.197Z,80
2022-07-26T15:00:33.123Z,79
2022-07-26T15:20:33.989Z,85
2022-07-26T15:30:34.214Z,87
2022-07-26T15:40:34.425Z,86
2022-07-26T16:00:36.224Z,86
2022-07-26T16:20:37.970Z,86
2022-07-26T16:50:38.787Z,85
2022-07-26T17:00:39.286Z,84
2022-07-26T17:10:39.874Z,83
2022-07-26T17:20:40.834Z,81
2022-07-26T17:30:41.110Z,78
2022-07-26T17:50:42.599Z,76
2022-07-26T18:00:43.616Z,74
2022-07-26T18:10:47.680Z,74
2022-07-26T18:20:45.120Z,73
2022-07-26T18:30:45.591Z,72
2022-07-26T18:40:46.394Z,73
2022-07-26T18:50:47.045Z,73
2022-07-26T19:00:47.937Z,74
2022-07-26T19:10:48.474Z,74
2022-07-26T19:20:49.223Z,75
2022-07-26T19:30:49.936Z,75
2022-07-26T19:40:50.370Z,75
2022-07-26T19:50:50.532Z,74
2022-07-26T20:00:50.986Z,73
2022-07-26T20:10:51.997Z,72
2022-07-26T20:30:53.394Z,71
2022-07-26T20:40:54.145Z,70
2022-07-26T20:50:55.199Z,70
2022-07-26T21:10:57.071Z,70
2022-07-26T21:20:57.811Z,70
2022-07-26T21:40:59.466Z,71
2022-07-26T22:01:00.794Z,73
2022-07-26T22:11:01.770Z,73
2022-07-26T22:21:02.662Z,74
2022-07-26T22:31:03.538Z,75
2022-07-26T22:41:03.713Z,76
2022-07-26T23:01:04.502Z,77
2022-07-26T23:11:04.656Z,77
2022-07-26T23:21:04.798Z,78
2022-07-26T23:51:06.644Z,80
